createdAt,value
2023-03-08T00:01:51.678Z,86.31
2023-03-08T00:04:18.388Z,85.31
2023-03-08T00:06:45.076Z,85.41
2023-03-08T00:09:11.747Z,85.68
2023-03-08T00:11:38.687Z,87.26
2023-03-08T00:14:05.333Z,86.03
2023-03-08T00:16:31.973Z,85.90
2023-03-08T00:18:58.788Z,86.32
2023-03-08T00:21:25.465Z,86.43
2023-03-08T00:23:53.160Z,86.68
2023-03-08T00:26:19.936Z,87.53
2023-03-08T00:28:46.946Z,86.39
2023-03-08T00:31:14.423Z,88.49
2023-03-08T00:33:41.446Z,94.97
2023-03-08T00:36:14.457Z,93.98
2023-03-08T00:38:41.170Z,92.41
2023-03-08T00:41:07.906Z,88.26
2023-03-08T00:43:34.535Z,88.64
2023-03-08T00:46:01.738Z,87.86
2023-03-08T00:48:28.483Z,86.47
2023-03-08T00:50:55.096Z,87.02
2023-03-08T00:53:24.410Z,86.84
2023-03-08T00:55:57.893Z,89.51
2023-03-08T00:58:26.326Z,99.62
2023-03-08T01:00:53.134Z,100.00
2023-03-08T01:03:21.340Z,100.00
2023-03-08T01:05:51.332Z,100.00
2023-03-08T01:08:18.879Z,100.00
2023-03-08T01:10:50.168Z,100.00
2023-03-08T01:13:18.215Z,100.00
2023-03-08T01:15:44.904Z,100.00
2023-03-08T01:18:11.910Z,100.00
2023-03-08T01:20:38.567Z,100.00
2023-03-08T01:23:05.464Z,100.00
2023-03-08T01:25:32.239Z,97.75
2023-03-08T01:27:58.959Z,95.07
2023-03-08T01:30:25.761Z,94.89
2023-03-08T01:32:53.184Z,93.46
2023-03-08T01:35:19.970Z,93.29
2023-03-08T01:37:46.707Z,95.01
2023-03-08T01:40:16.354Z,97.52
2023-03-08T01:42:42.957Z,97.99
2023-03-08T01:45:47.063Z,96.26
2023-03-08T01:48:16.086Z,97.90
2023-03-08T01:50:45.777Z,96.06
2023-03-08T01:53:13.411Z,96.12
2023-03-08T01:55:43.602Z,94.01
2023-03-08T01:58:10.653Z,93.96
2023-03-08T02:00:39.075Z,93.89
2023-03-08T02:03:11.650Z,94.83
2023-03-08T02:05:42.188Z,95.10
2023-03-08T02:08:09.641Z,100.00
2023-03-08T02:10:37.619Z,100.00
2023-03-08T02:13:07.745Z,100.00
2023-03-08T02:15:34.523Z,100.00
2023-03-08T02:18:01.256Z,100.00
2023-03-08T02:20:38.171Z,98.92
2023-03-08T02:23:16.251Z,98.09
2023-03-08T02:25:52.063Z,98.85
2023-03-08T02:28:20.642Z,98.42
2023-03-08T02:30:48.009Z,99.08
2023-03-08T02:33:14.637Z,97.82
2023-03-08T02:35:41.361Z,96.27
2023-03-08T02:38:09.119Z,95.21
2023-03-08T02:40:37.266Z,96.01
2023-03-08T02:43:05.751Z,97.24
2023-03-08T02:45:33.282Z,96.56
2023-03-08T02:48:01.204Z,94.81
2023-03-08T02:50:28.036Z,95.19
2023-03-08T02:52:54.810Z,96.06
2023-03-08T02:55:21.456Z,95.29
2023-03-08T02:57:48.099Z,95.81
2023-03-08T03:00:15.363Z,95.14
2023-03-08T03:02:42.208Z,96.77
2023-03-08T03:05:10.124Z,97.13
2023-03-08T03:07:39.111Z,96.36
2023-03-08T03:10:06.903Z,96.10
2023-03-08T03:12:33.974Z,97.47
2023-03-08T03:15:08.447Z,97.95
2023-03-08T03:17:35.988Z,99.63
2023-03-08T03:20:06.863Z,99.45
2023-03-08T03:22:33.511Z,100.00
2023-03-08T03:25:03.220Z,100.00
2023-03-08T03:27:29.870Z,100.00
2023-03-08T03:29:56.609Z,100.00
2023-03-08T03:32:23.262Z,100.00
2023-03-08T03:34:50.015Z,100.00
2023-03-08T03:37:16.735Z,100.00
2023-03-08T03:39:43.468Z,100.00
2023-03-08T03:42:10.343Z,100.00
2023-03-08T03:44:37.272Z,100.00
2023-03-08T03:47:04.176Z,100.00
2023-03-08T03:49:31.060Z,100.00
2023-03-08T03:51:57.668Z,100.00
2023-03-08T03:54:24.627Z,100.00
2023-03-08T03:56:51.730Z,100.00
2023-03-08T03:59:18.446Z,100.00
2023-03-08T04:01:45.082Z,100.00
2023-03-08T04:04:13.104Z,100.00
2023-03-08T04:06:39.864Z,100.00
2023-03-08T04:09:10.429Z,100.00
2023-03-08T04:11:40.294Z,99.11
2023-03-08T04:14:07.604Z,100.00
2023-03-08T04:16:36.500Z,100.00
2023-03-08T04:19:12.178Z,100.00
2023-03-08T04:21:39.517Z,100.00
2023-03-08T04:24:06.666Z,100.00
2023-03-08T04:26:33.565Z,100.00
2023-03-08T04:29:00.382Z,100.00
2023-03-08T04:31:29.477Z,100.00
2023-03-08T04:33:56.538Z,99.91
2023-03-08T04:36:23.347Z,100.00
2023-03-08T04:38:51.275Z,99.64
2023-03-08T04:41:18.609Z,97.70
2023-03-08T04:43:54.441Z,99.88
2023-03-08T04:46:24.053Z,99.80
2023-03-08T04:48:51.484Z,99.88
2023-03-08T04:51:18.119Z,99.86
2023-03-08T04:53:45.013Z,100.00
2023-03-08T04:56:13.784Z,100.00
2023-03-08T04:58:41.937Z,100.00
2023-03-08T05:01:20.112Z,100.00
2023-03-08T05:03:46.996Z,100.00
2023-03-08T05:06:14.263Z,99.85
2023-03-08T05:08:41.501Z,99.42
2023-03-08T05:11:08.601Z,100.00
2023-03-08T05:13:37.391Z,100.00
2023-03-08T05:16:06.003Z,100.00
2023-03-08T05:18:33.146Z,100.00
2023-03-08T05:21:03.377Z,100.00
2023-03-08T05:23:30.413Z,100.00
2023-03-08T05:25:59.341Z,100.00
2023-03-08T05:28:28.538Z,100.00
2023-03-08T05:31:24.797Z,100.00
2023-03-08T05:33:52.412Z,100.00
2023-03-08T05:36:19.673Z,100.00
2023-03-08T05:38:46.359Z,100.00
2023-03-08T05:41:15.094Z,100.00
2023-03-08T05:43:42.164Z,100.00
2023-03-08T05:46:12.913Z,100.00
2023-03-08T05:48:40.341Z,100.00
2023-03-08T05:51:15.108Z,100.00
2023-03-08T05:53:42.437Z,100.00
2023-03-08T05:56:09.022Z,100.00
2023-03-08T05:58:36.324Z,100.00
2023-03-08T06:01:32.243Z,100.00
2023-03-08T06:03:58.897Z,100.00
2023-03-08T06:06:27.525Z,100.00
2023-03-08T06:08:54.220Z,100.00
2023-03-08T06:11:20.866Z,100.00
2023-03-08T06:13:47.532Z,100.00
2023-03-08T06:16:14.810Z,100.00
2023-03-08T06:18:43.072Z,100.00
2023-03-08T06:21:18.098Z,100.00
2023-03-08T06:23:45.943Z,100.00
2023-03-08T06:26:13.518Z,100.00
2023-03-08T06:28:40.353Z,100.00
2023-03-08T06:31:09.363Z,100.00
2023-03-08T06:33:36.011Z,100.00
2023-03-08T06:36:21.768Z,100.00
2023-03-08T06:38:49.219Z,100.00
2023-03-08T06:41:17.562Z,100.00
2023-03-08T06:43:44.327Z,100.00
2023-03-08T06:46:13.753Z,100.00
2023-03-08T06:48:40.879Z,100.00
2023-03-08T06:51:07.509Z,100.00
2023-03-08T06:53:35.366Z,100.00
2023-03-08T06:56:02.618Z,100.00
2023-03-08T06:58:29.343Z,100.00
2023-03-08T07:00:56.090Z,100.00
2023-03-08T07:03:22.845Z,100.00
2023-03-08T07:05:49.511Z,100.00
2023-03-08T07:08:16.238Z,100.00
2023-03-08T07:10:42.910Z,100.00
2023-03-08T07:13:09.658Z,100.00
2023-03-08T07:15:40.002Z,100.00
2023-03-08T07:18:06.613Z,100.00
2023-03-08T07:20:33.336Z,100.00
2023-03-08T07:23:00.140Z,100.00
2023-03-08T07:25:26.846Z,100.00
2023-03-08T07:27:53.877Z,100.00
2023-03-08T07:30:20.764Z,100.00
2023-03-08T07:32:47.653Z,100.00
2023-03-08T07:35:16.083Z,100.00
2023-03-08T07:37:47.019Z,98.42
2023-03-08T07:40:17.477Z,100.00
2023-03-08T07:42:45.159Z,100.00
2023-03-08T07:45:12.978Z,100.00
2023-03-08T07:47:40.065Z,100.00
2023-03-08T07:50:08.353Z,100.00
2023-03-08T07:52:35.179Z,100.00
2023-03-08T07:55:01.990Z,97.73
2023-03-08T07:57:28.671Z,97.65
2023-03-08T07:59:55.408Z,99.21
2023-03-08T08:02:22.088Z,96.94
2023-03-08T08:05:01.447Z,97.76
2023-03-08T08:07:28.138Z,97.50
2023-03-08T08:09:54.877Z,99.09
2023-03-08T08:12:21.637Z,99.44
2023-03-08T08:14:48.373Z,100.00
2023-03-08T08:17:15.229Z,99.44
2023-03-08T08:19:41.953Z,97.80
2023-03-08T08:22:08.619Z,98.75
2023-03-08T08:24:36.910Z,99.10
2023-03-08T08:27:03.975Z,96.32
2023-03-08T08:29:30.713Z,94.76
2023-03-08T08:31:57.424Z,95.73
2023-03-08T08:34:24.833Z,93.49
2023-03-08T08:36:51.489Z,93.11
2023-03-08T08:39:18.424Z,91.64
2023-03-08T08:41:45.094Z,94.63
2023-03-08T08:44:11.924Z,93.95
2023-03-08T08:46:41.932Z,92.66
2023-03-08T08:49:08.572Z,89.64
2023-03-08T08:51:35.487Z,90.27
2023-03-08T08:54:02.599Z,87.78
2023-03-08T08:56:29.445Z,87.74
2023-03-08T08:59:03.114Z,86.15
2023-03-08T09:01:32.473Z,84.65
2023-03-08T09:03:59.969Z,85.69
2023-03-08T09:06:28.605Z,87.90
2023-03-08T09:08:58.166Z,87.55
2023-03-08T09:11:26.757Z,86.17
2023-03-08T09:13:53.920Z,84.96
2023-03-08T09:16:32.568Z,77.87
2023-03-08T09:19:04.014Z,80.31
2023-03-08T09:21:31.618Z,77.65
2023-03-08T09:24:04.889Z,78.75
2023-03-08T09:26:33.034Z,76.13
2023-03-08T09:29:01.401Z,75.58
2023-03-08T09:31:28.080Z,74.08
2023-03-08T09:33:54.733Z,73.63
2023-03-08T09:36:21.678Z,74.59
2023-03-08T09:38:49.679Z,74.76
2023-03-08T09:41:19.008Z,72.61
2023-03-08T09:44:09.443Z,75.34
2023-03-08T09:46:40.434Z,69.84
2023-03-08T09:49:15.433Z,69.72
2023-03-08T09:51:47.790Z,72.20
2023-03-08T09:54:20.701Z,68.70
2023-03-08T09:56:51.203Z,65.36
2023-03-08T09:59:27.045Z,67.73
2023-03-08T10:01:56.706Z,68.00
2023-03-08T10:04:34.126Z,67.21
2023-03-08T10:07:06.736Z,69.49
2023-03-08T10:09:38.698Z,63.66
2023-03-08T10:12:17.362Z,64.98
2023-03-08T10:14:52.754Z,63.80
2023-03-08T10:17:28.248Z,60.14
2023-03-08T10:20:24.796Z,61.45
2023-03-08T10:23:15.755Z,60.31
2023-03-08T10:25:42.671Z,61.13
2023-03-08T10:28:20.877Z,57.57
2023-03-08T10:30:51.040Z,59.40
2023-03-08T10:33:19.804Z,56.42
2023-03-08T10:35:52.715Z,56.73
2023-03-08T10:38:19.497Z,59.89
2023-03-08T10:40:47.001Z,57.21
2023-03-08T10:43:39.190Z,54.81
2023-03-08T10:46:12.364Z,59.20
2023-03-08T10:48:39.281Z,54.06
2023-03-08T10:51:16.687Z,56.34
2023-03-08T10:53:56.523Z,56.33
2023-03-08T10:56:37.858Z,54.60
2023-03-08T10:59:13.965Z,54.51
2023-03-08T11:01:52.910Z,56.26
2023-03-08T11:04:24.711Z,51.36
2023-03-08T11:06:51.622Z,51.00
2023-03-08T11:09:30.919Z,51.00
2023-03-08T11:11:59.491Z,55.76
2023-03-08T11:14:28.160Z,53.95
2023-03-08T11:17:06.496Z,50.78
2023-03-08T11:19:54.645Z,51.62
2023-03-08T11:22:33.247Z,52.26
2023-03-08T11:25:09.247Z,50.88
2023-03-08T11:27:42.064Z,51.84
2023-03-08T11:30:30.439Z,53.93
2023-03-08T11:33:22.878Z,50.65
2023-03-08T11:36:11.523Z,50.75
2023-03-08T11:38:39.735Z,51.79
2023-03-08T11:41:27.735Z,49.62
2023-03-08T11:44:06.426Z,48.96
2023-03-08T11:46:51.406Z,50.09
2023-03-08T11:49:18.004Z,48.97
2023-03-08T11:51:53.201Z,48.79
2023-03-08T11:54:58.247Z,48.29
2023-03-08T11:57:27.505Z,48.08
2023-03-08T12:00:02.547Z,47.25
2023-03-08T12:02:37.560Z,47.33
2023-03-08T12:05:29.394Z,46.96
2023-03-08T12:08:15.868Z,45.57
2023-03-08T12:10:48.612Z,46.49
2023-03-08T12:13:25.303Z,45.76
2023-03-08T12:16:08.466Z,45.98
2023-03-08T12:19:01.374Z,45.53
2023-03-08T12:21:34.399Z,46.96
2023-03-08T12:24:42.474Z,47.36
2023-03-08T12:27:20.443Z,47.62
2023-03-08T12:29:57.566Z,47.66
2023-03-08T12:32:26.202Z,48.88
2023-03-08T12:35:20.544Z,47.15
2023-03-08T12:37:59.624Z,46.87
2023-03-08T12:40:37.014Z,47.53
2023-03-08T12:43:13.026Z,48.19
2023-03-08T12:45:42.332Z,46.69
2023-03-08T12:48:21.955Z,48.88
2023-03-08T12:50:54.506Z,48.36
2023-03-08T12:53:47.073Z,45.85
2023-03-08T12:56:19.305Z,47.19
2023-03-08T12:59:14.503Z,48.20
2023-03-08T13:01:46.206Z,47.02
2023-03-08T13:04:40.804Z,46.19
2023-03-08T13:07:39.936Z,45.06
2023-03-08T13:10:23.145Z,47.34
2023-03-08T13:13:39.165Z,46.87
2023-03-08T13:16:15.097Z,44.44
2023-03-08T13:18:47.413Z,41.93
2023-03-08T13:21:27.146Z,43.69
2023-03-08T13:24:13.654Z,43.91
2023-03-08T13:27:01.210Z,42.60
2023-03-08T13:29:31.019Z,44.41
2023-03-08T13:31:58.786Z,40.60
2023-03-08T13:34:31.087Z,39.35
2023-03-08T13:36:58.213Z,39.35
2023-03-08T13:39:32.425Z,41.09
2023-03-08T13:42:25.853Z,40.22
2023-03-08T13:45:09.878Z,41.56
2023-03-08T13:47:38.722Z,43.92
2023-03-08T13:50:06.678Z,46.25
2023-03-08T13:52:36.747Z,45.34
2023-03-08T13:55:07.076Z,45.99
2023-03-08T13:57:37.111Z,47.48
2023-03-08T14:00:36.405Z,48.94
2023-03-08T14:03:05.254Z,49.33
2023-03-08T14:05:39.868Z,50.44
2023-03-08T14:08:16.811Z,50.07
2023-03-08T14:11:00.213Z,48.86
2023-03-08T14:13:33.883Z,49.89
2023-03-08T14:16:05.157Z,50.47
2023-03-08T14:18:38.104Z,52.60
2023-03-08T14:21:13.987Z,50.75
2023-03-08T14:23:43.351Z,50.74
2023-03-08T14:26:36.231Z,52.85
2023-03-08T14:29:12.397Z,53.45
2023-03-08T14:31:40.385Z,52.40
2023-03-08T14:34:24.838Z,52.53
2023-03-08T14:37:04.997Z,52.65
2023-03-08T14:39:33.618Z,51.83
2023-03-08T14:42:29.544Z,53.06
2023-03-08T14:45:05.627Z,53.94
2023-03-08T14:47:34.719Z,54.47
2023-03-08T14:50:06.996Z,54.30
2023-03-08T14:52:36.673Z,55.31
2023-03-08T14:55:16.405Z,54.88
2023-03-08T14:57:43.160Z,56.52
2023-03-08T15:00:14.241Z,55.49
2023-03-08T15:02:41.528Z,57.32
2023-03-08T15:05:22.516Z,56.00
2023-03-08T15:07:55.209Z,59.61
2023-03-08T15:10:34.058Z,58.56
2023-03-08T15:13:01.033Z,58.51
2023-03-08T15:15:27.656Z,59.24
2023-03-08T15:17:54.323Z,58.21
2023-03-08T15:20:21.027Z,59.37
2023-03-08T15:23:00.196Z,59.38
2023-03-08T15:25:29.238Z,60.14
2023-03-08T15:27:56.094Z,60.30
2023-03-08T15:30:26.417Z,60.82
2023-03-08T15:32:53.268Z,60.75
2023-03-08T15:35:19.854Z,61.43
2023-03-08T15:37:47.019Z,62.33
2023-03-08T15:40:15.453Z,61.35
2023-03-08T15:42:42.450Z,61.23
2023-03-08T15:45:10.805Z,63.50
2023-03-08T15:47:41.652Z,63.03
2023-03-08T15:50:17.509Z,62.59
2023-03-08T15:52:44.676Z,62.87
2023-03-08T15:55:13.323Z,63.14
2023-03-08T15:57:41.035Z,63.79
2023-03-08T16:00:09.815Z,65.07
2023-03-08T16:02:36.420Z,64.90
2023-03-08T16:05:04.387Z,66.43
2023-03-08T16:07:31.890Z,66.81
2023-03-08T16:09:58.813Z,66.89
2023-03-08T16:12:25.816Z,66.52
2023-03-08T16:14:52.493Z,66.91
2023-03-08T16:17:19.173Z,66.71
2023-03-08T16:19:45.850Z,66.20
2023-03-08T16:22:12.597Z,65.27
2023-03-08T16:24:39.246Z,66.47
2023-03-08T16:27:06.077Z,66.21
2023-03-08T16:29:33.782Z,68.24
2023-03-08T16:32:00.660Z,68.04
2023-03-08T16:34:29.363Z,68.28
2023-03-08T16:36:56.967Z,69.63
2023-03-08T16:39:25.127Z,68.10
2023-03-08T16:41:52.080Z,69.82
2023-03-08T16:44:23.040Z,69.60
2023-03-08T16:46:50.240Z,70.60
2023-03-08T16:49:18.847Z,70.58
2023-03-08T16:51:45.614Z,71.62
2023-03-08T16:54:13.524Z,72.38
2023-03-08T16:56:41.957Z,71.82
2023-03-08T16:59:13.422Z,72.90
2023-03-08T17:01:40.724Z,74.58
2023-03-08T17:04:07.361Z,74.90
2023-03-08T17:06:34.316Z,73.42
2023-03-08T17:09:01.639Z,72.32
2023-03-08T17:11:31.455Z,74.71
2023-03-08T17:14:03.114Z,77.30
2023-03-08T17:16:31.586Z,74.72
2023-03-08T17:19:00.377Z,74.10
2023-03-08T17:21:28.734Z,74.01
2023-03-08T17:23:55.639Z,75.02
2023-03-08T17:26:23.444Z,76.01
2023-03-08T17:28:54.330Z,78.69
2023-03-08T17:31:22.792Z,77.89
2023-03-08T17:33:50.352Z,79.34
2023-03-08T17:36:17.211Z,77.94
2023-03-08T17:38:44.206Z,78.11
2023-03-08T17:41:13.490Z,77.86
2023-03-08T17:43:41.448Z,78.60
2023-03-08T17:46:12.631Z,77.24
2023-03-08T17:48:39.460Z,78.09
2023-03-08T17:51:15.281Z,78.11
2023-03-08T17:53:43.387Z,79.20
2023-03-08T17:56:13.232Z,79.93
2023-03-08T17:58:40.555Z,80.09
2023-03-08T18:01:16.217Z,79.37
2023-03-08T18:03:43.584Z,81.50
2023-03-08T18:06:19.217Z,79.77
2023-03-08T18:08:46.164Z,80.45
2023-03-08T18:11:12.914Z,81.69
2023-03-08T18:13:40.824Z,80.99
2023-03-08T18:16:08.291Z,82.36
2023-03-08T18:18:34.972Z,81.09
2023-03-08T18:21:12.638Z,82.23
2023-03-08T18:23:40.362Z,82.49
2023-03-08T18:26:06.993Z,82.17
2023-03-08T18:28:33.582Z,82.54
2023-03-08T18:31:00.238Z,81.59
2023-03-08T18:33:26.943Z,82.71
2023-03-08T18:35:58.924Z,80.77
2023-03-08T18:38:25.695Z,83.01
2023-03-08T18:40:52.309Z,83.65
2023-03-08T18:43:19.075Z,82.95
2023-03-08T18:45:56.440Z,84.81
2023-03-08T18:48:24.295Z,83.88
2023-03-08T18:50:51.064Z,86.35
2023-03-08T18:53:17.894Z,85.13
2023-03-08T18:55:55.520Z,84.90
2023-03-08T18:58:22.330Z,84.29
2023-03-08T19:00:49.039Z,87.31
2023-03-08T19:03:15.814Z,87.58
2023-03-08T19:05:42.990Z,87.04
2023-03-08T19:08:09.722Z,86.29
2023-03-08T19:10:36.665Z,86.43
2023-03-08T19:13:05.968Z,87.72
2023-03-08T19:15:36.195Z,85.65
2023-03-08T19:18:03.049Z,86.16
2023-03-08T19:20:29.803Z,87.13
2023-03-08T19:22:56.750Z,87.56
2023-03-08T19:25:23.595Z,88.17
2023-03-08T19:27:50.257Z,88.25
2023-03-08T19:30:17.400Z,86.35
2023-03-08T19:32:44.429Z,86.29
2023-03-08T19:35:11.298Z,87.35
2023-03-08T19:37:38.072Z,86.24
2023-03-08T19:40:05.380Z,86.41
2023-03-08T19:42:32.019Z,86.75
2023-03-08T19:45:00.950Z,86.76
2023-03-08T19:47:27.746Z,87.21
2023-03-08T19:49:54.370Z,87.11
2023-03-08T19:52:21.085Z,90.54
2023-03-08T19:54:47.731Z,91.01
2023-03-08T19:57:14.430Z,90.10
2023-03-08T19:59:41.037Z,88.56
2023-03-08T20:02:08.878Z,86.87
2023-03-08T20:04:35.674Z,87.34
2023-03-08T20:07:02.715Z,86.36
2023-03-08T20:09:29.470Z,85.58
2023-03-08T20:11:58.840Z,86.92
2023-03-08T20:14:27.490Z,85.47
2023-03-08T20:16:55.091Z,84.23
2023-03-08T20:19:22.047Z,84.66
2023-03-08T20:21:49.098Z,86.11
2023-03-08T20:24:15.754Z,86.99
2023-03-08T20:26:42.433Z,89.33
2023-03-08T20:29:12.182Z,89.12
2023-03-08T20:31:38.847Z,87.37
2023-03-08T20:34:05.517Z,88.71
2023-03-08T20:36:33.503Z,89.73
2023-03-08T20:39:00.714Z,87.96
2023-03-08T20:41:28.512Z,88.51
2023-03-08T20:43:55.220Z,87.24
2023-03-08T20:46:25.547Z,85.50
2023-03-08T20:48:52.266Z,86.09
2023-03-08T20:51:20.654Z,86.08
2023-03-08T20:53:51.878Z,87.69
2023-03-08T20:56:21.176Z,86.46
2023-03-08T20:58:48.146Z,83.65
2023-03-08T21:01:17.791Z,86.29
2023-03-08T21:03:45.869Z,84.33
2023-03-08T21:06:25.305Z,85.35
2023-03-08T21:08:52.363Z,82.14
2023-03-08T21:11:20.084Z,83.36
2023-03-08T21:13:51.618Z,83.03
2023-03-08T21:16:20.266Z,82.47
2023-03-08T21:18:51.896Z,82.78
2023-03-08T21:21:25.774Z,83.27
2023-03-08T21:23:52.823Z,81.51
2023-03-08T21:26:19.526Z,83.22
2023-03-08T21:28:46.632Z,80.93
2023-03-08T21:31:13.384Z,81.48
2023-03-08T21:33:40.022Z,82.48
2023-03-08T21:36:07.169Z,82.18
2023-03-08T21:38:33.912Z,82.21
2023-03-08T21:41:00.544Z,83.26
2023-03-08T21:43:27.175Z,81.66
2023-03-08T21:45:53.947Z,83.07
2023-03-08T21:48:20.789Z,80.81
2023-03-08T21:50:47.626Z,82.63
2023-03-08T21:53:14.255Z,84.60
2023-03-08T21:55:41.855Z,82.59
2023-03-08T21:58:09.425Z,83.15
2023-03-08T22:00:36.235Z,83.75
2023-03-08T22:03:04.711Z,81.88
2023-03-08T22:05:31.729Z,82.53
2023-03-08T22:07:58.660Z,81.92
2023-03-08T22:10:25.313Z,82.08
2023-03-08T22:12:52.043Z,83.35
2023-03-08T22:15:19.069Z,81.74
2023-03-08T22:17:45.934Z,80.76
2023-03-08T22:20:12.880Z,80.56
2023-03-08T22:22:40.278Z,81.23
2023-03-08T22:25:08.563Z,80.52
2023-03-08T22:27:35.406Z,81.81
2023-03-08T22:30:03.029Z,82.52
2023-03-08T22:32:29.715Z,81.32
2023-03-08T22:34:56.769Z,81.55
2023-03-08T22:37:23.468Z,81.81
2023-03-08T22:39:50.209Z,82.45
2023-03-08T22:42:16.965Z,82.87
2023-03-08T22:44:43.804Z,81.41
2023-03-08T22:47:10.484Z,80.60
2023-03-08T22:49:37.197Z,80.97
2023-03-08T22:52:03.982Z,84.18
2023-03-08T22:54:30.935Z,83.69
2023-03-08T22:56:57.578Z,84.04
2023-03-08T22:59:24.339Z,84.11
2023-03-08T23:01:51.431Z,83.26
2023-03-08T23:04:18.201Z,84.96
2023-03-08T23:06:44.826Z,83.04
2023-03-08T23:09:11.614Z,82.66
2023-03-08T23:11:39.556Z,82.00
2023-03-08T23:14:07.134Z,82.31
2023-03-08T23:16:35.068Z,82.89
2023-03-08T23:19:02.247Z,83.29
2023-03-08T23:21:30.432Z,84.51
2023-03-08T23:23:57.846Z,84.35
2023-03-08T23:26:25.765Z,84.00
2023-03-08T23:28:55.825Z,84.70
2023-03-08T23:31:25.112Z,83.24
2023-03-08T23:33:52.524Z,84.72
2023-03-08T23:36:22.168Z,84.43
2023-03-08T23:38:49.565Z,83.85
2023-03-08T23:41:17.712Z,84.68
2023-03-08T23:43:44.762Z,85.76
2023-03-08T23:46:19.318Z,86.37
2023-03-08T23:48:47.312Z,85.69
2023-03-08T23:51:16.813Z,86.40
2023-03-08T23:53:44.107Z,86.11
2023-03-08T23:56:28.688Z,86.19
2023-03-08T23:59:00.889Z,85.29
